Legend :    VFR   Marginal VFR   IFR   Intensive IFR   Very Intensive IFR
Visi :
Ceiling :
>= 8 km
>= 3000ft
5 to 8 km
1000 to 3000 ft
1500m to 5 km
500 to 1000 ft
800 to 1500m
200 to 500 ft
< 800m
< 200 ft
Symbols :   Thunderstorms  Fog  Heavy snow  Heavy precipitations  Wind > 20 kt






- Airport Elevation : 1333 ft
- IATA code : ICT


KICT - Wichita Mid Continent

CURRENT METAR :
  • 012153Z 14017KT 10SM SCT080 SCT110 SCT180 SCT220 34/17 A2990 RMK AO2 SLP110 CB DSNT NW-N-NE MOVG E T03390172

EXPIRED METARs :
  • 012053Z 14015G19KT 10SM SCT080 SCT120 SCT220 33/21 A2992 RMK AO2 SLP117 CB DSNT N-NE TCU DSNT NW-N T03330206 56011
  • 010553Z 16009KT 10SM CLR 23/17 A2995 RMK AO2 SLP126 T02330172 10328 20233 403440167 51010
  • 011953Z 14011KT 10SM SCT080 SCT230 34/21 A2993 RMK AO2 SLP119 T03390206

TAF KICT
Valid from the 01 at 06:00 until the 02 at 06:00 UTC


010520Z 0106/0206 16011G19KT P6SM SKC
FM010700 17009KT P6SM SCT250
FM012200 15012KT P6SM SCT250
KZKC FIR / North America


LOGIN :  

Disclaimer |     EN      FR      IT 



MET'MAP, your aeronautical weather chart ! - Copyright ORBIFLY December 2007 - Disclaimer


ORBIFLY MET'MAP TEAM :

Programming & Development : Alexandra Zaïnal
Original concept : Baudouin d'Aumeries
Technical & hardware support : Manuel Goepfert
Assistance : Marc-Olivier Méhu




SOURCES & CREDITS :

   NOAA       Earth
Advisory